sensor_id;sensor_type;location;lat;lon;timestamp;P1;durP1;ratioP1;P2;durP2;ratioP2
23384;SDS011;11865;45.394;10.978;2023-04-25T00:00:39;2.13;;;1.42;;
23384;SDS011;11865;45.394;10.978;2023-04-25T00:03:07;2.70;;;1.38;;
23384;SDS011;11865;45.394;10.978;2023-04-25T00:05:36;1.83;;;1.27;;
23384;SDS011;11865;45.394;10.978;2023-04-25T00:08:04;2.03;;;1.20;;
23384;SDS011;11865;45.394;10.978;2023-04-25T00:10:32;2.45;;;1.20;;
23384;SDS011;11865;45.394;10.978;2023-04-25T00:12:59;3.38;;;1.00;;
23384;SDS011;11865;45.394;10.978;2023-04-25T00:15:29;1.23;;;0.90;;
23384;SDS011;11865;45.394;10.978;2023-04-25T00:17:57;1.20;;;1.10;;
23384;SDS011;11865;45.394;10.978;2023-04-25T00:20:25;2.22;;;1.13;;
23384;SDS011;11865;45.394;10.978;2023-04-25T00:22:52;0.95;;;0.95;;
23384;SDS011;11865;45.394;10.978;2023-04-25T00:25:20;2.17;;;0.98;;
23384;SDS011;11865;45.394;10.978;2023-04-25T00:27:47;2.35;;;0.90;;
23384;SDS011;11865;45.394;10.978;2023-04-25T00:30:15;2.53;;;1.33;;
23384;SDS011;11865;45.394;10.978;2023-04-25T00:32:42;1.33;;;0.90;;
23384;SDS011;11865;45.394;10.978;2023-04-25T00:35:10;1.65;;;1.10;;
23384;SDS011;11865;45.394;10.978;2023-04-25T00:37:37;2.83;;;1.05;;
23384;SDS011;11865;45.394;10.978;2023-04-25T00:40:05;2.15;;;1.10;;
23384;SDS011;11865;45.394;10.978;2023-04-25T00:42:35;1.23;;;0.70;;
23384;SDS011;11865;45.394;10.978;2023-04-25T00:45:04;1.08;;;0.82;;
23384;SDS011;11865;45.394;10.978;2023-04-25T00:47:33;1.42;;;0.60;;
23384;SDS011;11865;45.394;10.978;2023-04-25T00:50:02;3.75;;;0.63;;
23384;SDS011;11865;45.394;10.978;2023-04-25T00:52:30;0.60;;;0.60;;
23384;SDS011;11865;45.394;10.978;2023-04-25T00:54:58;0.70;;;0.70;;
23384;SDS011;11865;45.394;10.978;2023-04-25T00:57:26;0.68;;;0.50;;
23384;SDS011;11865;45.394;10.978;2023-04-25T00:59:55;1.17;;;0.70;;
23384;SDS011;11865;45.394;10.978;2023-04-25T01:02:22;1.02;;;0.50;;
23384;SDS011;11865;45.394;10.978;2023-04-25T01:04:51;1.40;;;0.70;;
23384;SDS011;11865;45.394;10.978;2023-04-25T01:07:18;0.60;;;0.60;;
23384;SDS011;11865;45.394;10.978;2023-04-25T01:09:46;1.20;;;0.73;;
23384;SDS011;11865;45.394;10.978;2023-04-25T01:12:14;0.82;;;0.65;;
23384;SDS011;11865;45.394;10.978;2023-04-25T01:14:42;0.85;;;0.50;;
23384;SDS011;11865;45.394;10.978;2023-04-25T01:17:10;1.23;;;0.65;;
23384;SDS011;11865;45.394;10.978;2023-04-25T01:19:38;1.02;;;0.55;;
23384;SDS011;11865;45.394;10.978;2023-04-25T01:22:05;2.22;;;0.80;;
23384;SDS011;11865;45.394;10.978;2023-04-25T01:24:33;2.45;;;1.10;;
23384;SDS011;11865;45.394;10.978;2023-04-25T01:27:02;1.02;;;0.57;;
23384;SDS011;11865;45.394;10.978;2023-04-25T01:29:31;0.80;;;0.65;;
23384;SDS011;11865;45.394;10.978;2023-04-25T01:31:59;1.55;;;0.60;;
23384;SDS011;11865;45.394;10.978;2023-04-25T01:34:28;0.52;;;0.52;;
23384;SDS011;11865;45.394;10.978;2023-04-25T01:36:58;1.85;;;0.60;;
23384;SDS011;11865;45.394;10.978;2023-04-25T01:39:28;1.40;;;0.43;;
23384;SDS011;11865;45.394;10.978;2023-04-25T01:41:56;2.33;;;0.75;;
23384;SDS011;11865;45.394;10.978;2023-04-25T01:44:25;0.70;;;0.50;;
23384;SDS011;11865;45.394;10.978;2023-04-25T01:46:53;1.88;;;0.50;;
23384;SDS011;11865;45.394;10.978;2023-04-25T01:49:21;0.93;;;0.60;;
23384;SDS011;11865;45.394;10.978;2023-04-25T01:51:48;2.92;;;0.57;;
23384;SDS011;11865;45.394;10.978;2023-04-25T01:54:16;1.80;;;0.57;;
23384;SDS011;11865;45.394;10.978;2023-04-25T01:56:49;1.90;;;0.50;;
23384;SDS011;11865;45.394;10.978;2023-04-25T01:59:19;1.50;;;0.80;;
23384;SDS011;11865;45.394;10.978;2023-04-25T02:01:59;1.15;;;0.60;;
23384;SDS011;11865;45.394;10.978;2023-04-25T02:04:32;2.70;;;0.80;;
23384;SDS011;11865;45.394;10.978;2023-04-25T02:07:00;0.57;;;0.50;;
23384;SDS011;11865;45.394;10.978;2023-04-25T02:09:37;1.23;;;0.73;;
23384;SDS011;11865;45.394;10.978;2023-04-25T02:12:07;1.30;;;0.55;;
23384;SDS011;11865;45.394;10.978;2023-04-25T02:15:08;1.02;;;0.60;;
23384;SDS011;11865;45.394;10.978;2023-04-25T02:17:43;2.60;;;0.57;;
23384;SDS011;11865;45.394;10.978;2023-04-25T02:20:12;2.97;;;0.55;;
23384;SDS011;11865;45.394;10.978;2023-04-25T02:22:39;1.08;;;0.40;;
23384;SDS011;11865;45.394;10.978;2023-04-25T02:25:07;0.30;;;0.30;;
23384;SDS011;11865;45.394;10.978;2023-04-25T02:27:36;0.40;;;0.40;;
23384;SDS011;11865;45.394;10.978;2023-04-25T02:30:04;0.47;;;0.47;;
23384;SDS011;11865;45.394;10.978;2023-04-25T02:32:33;0.98;;;0.80;;
23384;SDS011;11865;45.394;10.978;2023-04-25T02:35:02;1.38;;;0.75;;
23384;SDS011;11865;45.394;10.978;2023-04-25T02:37:33;1.05;;;0.70;;
23384;SDS011;11865;45.394;10.978;2023-04-25T02:40:02;1.02;;;0.60;;
23384;SDS011;11865;45.394;10.978;2023-04-25T02:42:31;1.88;;;0.50;;
23384;SDS011;11865;45.394;10.978;2023-04-25T02:44:58;2.45;;;0.60;;
23384;SDS011;11865;45.394;10.978;2023-04-25T02:47:26;0.50;;;0.50;;
23384;SDS011;11865;45.394;10.978;2023-04-25T02:49:54;1.33;;;0.50;;
23384;SDS011;11865;45.394;10.978;2023-04-25T02:52:21;2.85;;;0.90;;
23384;SDS011;11865;45.394;10.978;2023-04-25T02:54:56;0.70;;;0.50;;
23384;SDS011;11865;45.394;10.978;2023-04-25T02:57:25;1.65;;;0.40;;
23384;SDS011;11865;45.394;10.978;2023-04-25T02:59:53;1.88;;;0.55;;
23384;SDS011;11865;45.394;10.978;2023-04-25T03:02:21;1.17;;;0.50;;
23384;SDS011;11865;45.394;10.978;2023-04-25T03:04:48;0.82;;;0.70;;
23384;SDS011;11865;45.394;10.978;2023-04-25T03:07:16;0.47;;;0.43;;
23384;SDS011;11865;45.394;10.978;2023-04-25T03:09:43;3.35;;;0.90;;
23384;SDS011;11865;45.394;10.978;2023-04-25T03:12:11;3.28;;;0.70;;
23384;SDS011;11865;45.394;10.978;2023-04-25T03:14:39;1.17;;;0.50;;
23384;SDS011;11865;45.394;10.978;2023-04-25T03:17:06;0.73;;;0.47;;
23384;SDS011;11865;45.394;10.978;2023-04-25T03:19:35;3.13;;;0.52;;
23384;SDS011;11865;45.394;10.978;2023-04-25T03:22:02;6.40;;;1.15;;
23384;SDS011;11865;45.394;10.978;2023-04-25T03:24:30;1.65;;;0.80;;
23384;SDS011;11865;45.394;10.978;2023-04-25T03:26:57;1.70;;;0.70;;
23384;SDS011;11865;45.394;10.978;2023-04-25T03:29:25;0.80;;;0.80;;
23384;SDS011;11865;45.394;10.978;2023-04-25T03:31:55;0.65;;;0.65;;
23384;SDS011;11865;45.394;10.978;2023-04-25T03:34:23;0.80;;;0.60;;
23384;SDS011;11865;45.394;10.978;2023-04-25T03:36:51;0.98;;;0.60;;
23384;SDS011;11865;45.394;10.978;2023-04-25T03:39:19;2.42;;;0.70;;
23384;SDS011;11865;45.394;10.978;2023-04-25T03:41:49;1.30;;;0.77;;
23384;SDS011;11865;45.394;10.978;2023-04-25T03:44:18;2.35;;;0.70;;
23384;SDS011;11865;45.394;10.978;2023-04-25T03:46:45;1.52;;;0.60;;
23384;SDS011;11865;45.394;10.978;2023-04-25T03:49:13;6.45;;;0.60;;
23384;SDS011;11865;45.394;10.978;2023-04-25T03:51:56;1.60;;;0.60;;
23384;SDS011;11865;45.394;10.978;2023-04-25T03:54:24;3.75;;;0.68;;
23384;SDS011;11865;45.394;10.978;2023-04-25T03:57:03;3.60;;;0.60;;
23384;SDS011;11865;45.394;10.978;2023-04-25T03:59:33;0.68;;;0.60;;
23384;SDS011;11865;45.394;10.978;2023-04-25T04:02:01;0.38;;;0.38;;
23384;SDS011;11865;45.394;10.978;2023-04-25T04:04:29;2.50;;;0.90;;
23384;SDS011;11865;45.394;10.978;2023-04-25T04:06:59;1.58;;;0.70;;
23384;SDS011;11865;45.394;10.978;2023-04-25T04:09:30;1.10;;;0.90;;
23384;SDS011;11865;45.394;10.978;2023-04-25T04:11:59;1.13;;;0.40;;
23384;SDS011;11865;45.394;10.978;2023-04-25T04:14:30;0.57;;;0.50;;
23384;SDS011;11865;45.394;10.978;2023-04-25T04:16:57;0.60;;;0.50;;
23384;SDS011;11865;45.394;10.978;2023-04-25T04:19:25;1.83;;;0.70;;
23384;SDS011;11865;45.394;10.978;2023-04-25T04:22:03;0.93;;;0.63;;
23384;SDS011;11865;45.394;10.978;2023-04-25T04:24:30;3.30;;;0.55;;
23384;SDS011;11865;45.394;10.978;2023-04-25T04:27:01;1.00;;;0.50;;
23384;SDS011;11865;45.394;10.978;2023-04-25T04:29:35;1.40;;;0.45;;
23384;SDS011;11865;45.394;10.978;2023-04-25T04:32:25;0.60;;;0.52;;
23384;SDS011;11865;45.394;10.978;2023-04-25T04:34:54;0.50;;;0.50;;
23384;SDS011;11865;45.394;10.978;2023-04-25T04:37:23;0.60;;;0.60;;
23384;SDS011;11865;45.394;10.978;2023-04-25T04:39:51;0.60;;;0.60;;
23384;SDS011;11865;45.394;10.978;2023-04-25T04:42:27;0.98;;;0.70;;
23384;SDS011;11865;45.394;10.978;2023-04-25T04:45:09;1.13;;;0.60;;
23384;SDS011;11865;45.394;10.978;2023-04-25T04:47:46;1.65;;;0.88;;
23384;SDS011;11865;45.394;10.978;2023-04-25T04:50:42;1.02;;;0.63;;
23384;SDS011;11865;45.394;10.978;2023-04-25T04:53:20;0.50;;;0.50;;
23384;SDS011;11865;45.394;10.978;2023-04-25T04:56:17;0.93;;;0.40;;
23384;SDS011;11865;45.394;10.978;2023-04-25T04:58:53;1.27;;;0.60;;
23384;SDS011;11865;45.394;10.978;2023-04-25T05:01:20;0.85;;;0.43;;
23384;SDS011;11865;45.394;10.978;2023-04-25T05:03:59;0.38;;;0.38;;
23384;SDS011;11865;45.394;10.978;2023-04-25T05:07:00;0.45;;;0.40;;
23384;SDS011;11865;45.394;10.978;2023-04-25T05:09:30;1.48;;;0.80;;
23384;SDS011;11865;45.394;10.978;2023-04-25T05:12:17;0.93;;;0.50;;
23384;SDS011;11865;45.394;10.978;2023-04-25T05:15:01;1.38;;;0.50;;
23384;SDS011;11865;45.394;10.978;2023-04-25T05:17:42;11.02;;;1.90;;
23384;SDS011;11865;45.394;10.978;2023-04-25T05:20:36;9.18;;;2.58;;
23384;SDS011;11865;45.394;10.978;2023-04-25T05:23:21;7.85;;;2.53;;
23384;SDS011;11865;45.394;10.978;2023-04-25T05:25:49;13.40;;;2.40;;
23384;SDS011;11865;45.394;10.978;2023-04-25T05:28:42;7.10;;;2.67;;
23384;SDS011;11865;45.394;10.978;2023-04-25T05:31:36;14.57;;;3.47;;
23384;SDS011;11865;45.394;10.978;2023-04-25T05:34:09;10.52;;;2.78;;
23384;SDS011;11865;45.394;10.978;2023-04-25T05:36:45;6.68;;;2.50;;
23384;SDS011;11865;45.394;10.978;2023-04-25T05:39:15;7.28;;;2.67;;
23384;SDS011;11865;45.394;10.978;2023-04-25T05:42:05;7.18;;;2.75;;
23384;SDS011;11865;45.394;10.978;2023-04-25T05:44:51;4.60;;;2.53;;
23384;SDS011;11865;45.394;10.978;2023-04-25T05:47:38;7.30;;;2.30;;
23384;SDS011;11865;45.394;10.978;2023-04-25T05:50:15;7.18;;;2.75;;
23384;SDS011;11865;45.394;10.978;2023-04-25T05:52:52;4.57;;;2.30;;
23384;SDS011;11865;45.394;10.978;2023-04-25T05:55:26;6.55;;;2.85;;
23384;SDS011;11865;45.394;10.978;2023-04-25T05:57:54;3.75;;;2.13;;
23384;SDS011;11865;45.394;10.978;2023-04-25T06:00:22;4.15;;;2.22;;
23384;SDS011;11865;45.394;10.978;2023-04-25T06:02:50;5.65;;;2.20;;
23384;SDS011;11865;45.394;10.978;2023-04-25T06:05:18;3.58;;;2.13;;
23384;SDS011;11865;45.394;10.978;2023-04-25T06:07:47;3.20;;;1.70;;
23384;SDS011;11865;45.394;10.978;2023-04-25T06:10:14;3.20;;;1.88;;
23384;SDS011;11865;45.394;10.978;2023-04-25T06:12:42;5.13;;;1.85;;
23384;SDS011;11865;45.394;10.978;2023-04-25T06:15:10;5.28;;;1.92;;
23384;SDS011;11865;45.394;10.978;2023-04-25T06:17:54;3.63;;;1.35;;
23384;SDS011;11865;45.394;10.978;2023-04-25T06:20:22;4.00;;;1.45;;
23384;SDS011;11865;45.394;10.978;2023-04-25T06:22:52;2.60;;;1.48;;
23384;SDS011;11865;45.394;10.978;2023-04-25T06:25:26;4.53;;;1.48;;
23384;SDS011;11865;45.394;10.978;2023-04-25T06:27:54;2.80;;;1.45;;
23384;SDS011;11865;45.394;10.978;2023-04-25T06:30:23;3.00;;;1.60;;
23384;SDS011;11865;45.394;10.978;2023-04-25T06:32:57;3.67;;;1.20;;
23384;SDS011;11865;45.394;10.978;2023-04-25T06:35:27;7.20;;;1.55;;
23384;SDS011;11865;45.394;10.978;2023-04-25T06:37:55;4.45;;;1.50;;
23384;SDS011;11865;45.394;10.978;2023-04-25T06:40:23;3.08;;;1.00;;
23384;SDS011;11865;45.394;10.978;2023-04-25T06:42:51;3.38;;;1.13;;
23384;SDS011;11865;45.394;10.978;2023-04-25T06:45:39;1.92;;;1.10;;
23384;SDS011;11865;45.394;10.978;2023-04-25T06:48:08;3.30;;;1.05;;
23384;SDS011;11865;45.394;10.978;2023-04-25T06:50:36;1.67;;;0.90;;
23384;SDS011;11865;45.394;10.978;2023-04-25T06:53:03;1.33;;;0.85;;
23384;SDS011;11865;45.394;10.978;2023-04-25T06:55:30;2.50;;;1.27;;
23384;SDS011;11865;45.394;10.978;2023-04-25T06:58:27;1.67;;;0.80;;
23384;SDS011;11865;45.394;10.978;2023-04-25T07:01:12;2.25;;;0.73;;
23384;SDS011;11865;45.394;10.978;2023-04-25T07:03:39;0.88;;;0.77;;
23384;SDS011;11865;45.394;10.978;2023-04-25T07:06:13;1.17;;;1.00;;
23384;SDS011;11865;45.394;10.978;2023-04-25T07:08:41;1.63;;;0.85;;
23384;SDS011;11865;45.394;10.978;2023-04-25T07:11:08;0.73;;;0.63;;
23384;SDS011;11865;45.394;10.978;2023-04-25T07:13:36;2.15;;;0.60;;
23384;SDS011;11865;45.394;10.978;2023-04-25T07:16:04;1.00;;;0.68;;
23384;SDS011;11865;45.394;10.978;2023-04-25T07:18:33;3.92;;;1.23;;
23384;SDS011;11865;45.394;10.978;2023-04-25T07:21:02;0.77;;;0.60;;
23384;SDS011;11865;45.394;10.978;2023-04-25T07:23:32;2.92;;;0.70;;
23384;SDS011;11865;45.394;10.978;2023-04-25T07:26:02;2.60;;;0.90;;
23384;SDS011;11865;45.394;10.978;2023-04-25T07:28:30;0.75;;;0.70;;
23384;SDS011;11865;45.394;10.978;2023-04-25T07:30:57;2.72;;;1.13;;
23384;SDS011;11865;45.394;10.978;2023-04-25T07:33:25;0.68;;;0.63;;
23384;SDS011;11865;45.394;10.978;2023-04-25T07:35:52;1.02;;;0.77;;
23384;SDS011;11865;45.394;10.978;2023-04-25T07:38:20;1.63;;;0.80;;
23384;SDS011;11865;45.394;10.978;2023-04-25T07:40:49;1.30;;;0.90;;
23384;SDS011;11865;45.394;10.978;2023-04-25T07:43:16;1.10;;;0.80;;
23384;SDS011;11865;45.394;10.978;2023-04-25T07:46:03;2.63;;;1.10;;
23384;SDS011;11865;45.394;10.978;2023-04-25T07:48:33;0.82;;;0.80;;
23384;SDS011;11865;45.394;10.978;2023-04-25T07:51:02;2.40;;;0.80;;
23384;SDS011;11865;45.394;10.978;2023-04-25T07:53:33;2.25;;;1.05;;
23384;SDS011;11865;45.394;10.978;2023-04-25T07:56:05;0.80;;;0.68;;
23384;SDS011;11865;45.394;10.978;2023-04-25T07:58:36;0.60;;;0.60;;
23384;SDS011;11865;45.394;10.978;2023-04-25T08:01:07;1.48;;;0.70;;
23384;SDS011;11865;45.394;10.978;2023-04-25T08:03:34;3.10;;;0.70;;
23384;SDS011;11865;45.394;10.978;2023-04-25T08:06:05;1.17;;;0.77;;
23384;SDS011;11865;45.394;10.978;2023-04-25T08:08:42;1.35;;;0.88;;
23384;SDS011;11865;45.394;10.978;2023-04-25T08:11:13;0.98;;;0.80;;
23384;SDS011;11865;45.394;10.978;2023-04-25T08:13:40;0.80;;;0.60;;
23384;SDS011;11865;45.394;10.978;2023-04-25T08:16:08;1.38;;;1.00;;
23384;SDS011;11865;45.394;10.978;2023-04-25T08:18:36;1.27;;;0.60;;
23384;SDS011;11865;45.394;10.978;2023-04-25T08:21:04;1.02;;;0.70;;
23384;SDS011;11865;45.394;10.978;2023-04-25T08:23:31;0.70;;;0.70;;
23384;SDS011;11865;45.394;10.978;2023-04-25T08:26:05;0.98;;;0.77;;
23384;SDS011;11865;45.394;10.978;2023-04-25T08:28:36;1.00;;;0.90;;
23384;SDS011;11865;45.394;10.978;2023-04-25T08:31:04;1.13;;;1.02;;
23384;SDS011;11865;45.394;10.978;2023-04-25T08:33:40;0.60;;;0.60;;
23384;SDS011;11865;45.394;10.978;2023-04-25T08:36:28;4.05;;;0.80;;
23384;SDS011;11865;45.394;10.978;2023-04-25T08:38:58;1.10;;;0.85;;
23384;SDS011;11865;45.394;10.978;2023-04-25T08:41:26;0.70;;;0.70;;
23384;SDS011;11865;45.394;10.978;2023-04-25T08:43:55;1.83;;;0.60;;
23384;SDS011;11865;45.394;10.978;2023-04-25T08:46:23;1.67;;;0.80;;
23384;SDS011;11865;45.394;10.978;2023-04-25T08:49:15;1.77;;;1.00;;
23384;SDS011;11865;45.394;10.978;2023-04-25T08:51:46;1.08;;;0.63;;
23384;SDS011;11865;45.394;10.978;2023-04-25T08:54:16;0.65;;;0.63;;
23384;SDS011;11865;45.394;10.978;2023-04-25T08:56:47;2.60;;;0.60;;
23384;SDS011;11865;45.394;10.978;2023-04-25T08:59:15;0.80;;;0.60;;
23384;SDS011;11865;45.394;10.978;2023-04-25T09:01:45;1.25;;;0.80;;
23384;SDS011;11865;45.394;10.978;2023-04-25T09:04:13;0.82;;;0.68;;
23384;SDS011;11865;45.394;10.978;2023-04-25T09:06:41;1.25;;;0.60;;
23384;SDS011;11865;45.394;10.978;2023-04-25T09:09:09;2.95;;;0.80;;
23384;SDS011;11865;45.394;10.978;2023-04-25T09:11:37;1.08;;;0.60;;
23384;SDS011;11865;45.394;10.978;2023-04-25T09:14:21;2.00;;;0.50;;
23384;SDS011;11865;45.394;10.978;2023-04-25T09:17:06;1.38;;;0.50;;
23384;SDS011;11865;45.394;10.978;2023-04-25T09:19:55;0.57;;;0.47;;
23384;SDS011;11865;45.394;10.978;2023-04-25T09:22:33;0.60;;;0.55;;
23384;SDS011;11865;45.394;10.978;2023-04-25T09:25:02;0.98;;;0.70;;
23384;SDS011;11865;45.394;10.978;2023-04-25T09:27:34;1.70;;;0.50;;
23384;SDS011;11865;45.394;10.978;2023-04-25T09:30:10;1.48;;;0.55;;
23384;SDS011;11865;45.394;10.978;2023-04-25T09:33:16;1.85;;;0.80;;
23384;SDS011;11865;45.394;10.978;2023-04-25T09:35:47;0.63;;;0.40;;
23384;SDS011;11865;45.394;10.978;2023-04-25T09:38:41;0.80;;;0.80;;
23384;SDS011;11865;45.394;10.978;2023-04-25T09:41:22;0.77;;;0.73;;
23384;SDS011;11865;45.394;10.978;2023-04-25T09:43:52;1.15;;;0.60;;
23384;SDS011;11865;45.394;10.978;2023-04-25T09:46:35;0.68;;;0.65;;
23384;SDS011;11865;45.394;10.978;2023-04-25T09:49:07;2.30;;;0.70;;
23384;SDS011;11865;45.394;10.978;2023-04-25T09:51:57;0.73;;;0.60;;
23384;SDS011;11865;45.394;10.978;2023-04-25T09:54:30;1.02;;;0.68;;
23384;SDS011;11865;45.394;10.978;2023-04-25T09:57:11;0.90;;;0.70;;
23384;SDS011;11865;45.394;10.978;2023-04-25T09:59:39;2.92;;;0.63;;
23384;SDS011;11865;45.394;10.978;2023-04-25T10:02:11;0.90;;;0.80;;
23384;SDS011;11865;45.394;10.978;2023-04-25T10:04:39;2.35;;;0.70;;
23384;SDS011;11865;45.394;10.978;2023-04-25T10:07:29;0.70;;;0.57;;
23384;SDS011;11865;45.394;10.978;2023-04-25T10:09:59;1.33;;;0.88;;
23384;SDS011;11865;45.394;10.978;2023-04-25T10:12:32;0.85;;;0.60;;
23384;SDS011;11865;45.394;10.978;2023-04-25T10:15:01;1.95;;;0.90;;
23384;SDS011;11865;45.394;10.978;2023-04-25T10:17:31;2.83;;;1.00;;
23384;SDS011;11865;45.394;10.978;2023-04-25T10:20:00;2.60;;;0.80;;
23384;SDS011;11865;45.394;10.978;2023-04-25T10:22:38;1.48;;;0.90;;
23384;SDS011;11865;45.394;10.978;2023-04-25T10:25:08;0.40;;;0.40;;
23384;SDS011;11865;45.394;10.978;2023-04-25T10:27:36;0.93;;;0.63;;
23384;SDS011;11865;45.394;10.978;2023-04-25T10:32:43;0.73;;;0.73;;
23384;SDS011;11865;45.394;10.978;2023-04-25T10:35:17;0.63;;;0.50;;
23384;SDS011;11865;45.394;10.978;2023-04-25T10:40:26;3.08;;;0.50;;
23384;SDS011;11865;45.394;10.978;2023-04-25T10:42:54;1.08;;;0.68;;
23384;SDS011;11865;45.394;10.978;2023-04-25T10:45:22;3.45;;;1.08;;
23384;SDS011;11865;45.394;10.978;2023-04-25T10:47:50;1.48;;;1.13;;
23384;SDS011;11865;45.394;10.978;2023-04-25T10:50:18;4.70;;;1.00;;
23384;SDS011;11865;45.394;10.978;2023-04-25T10:52:45;2.88;;;1.30;;
23384;SDS011;11865;45.394;10.978;2023-04-25T10:55:12;2.10;;;1.05;;
23384;SDS011;11865;45.394;10.978;2023-04-25T10:57:41;1.25;;;0.90;;
23384;SDS011;11865;45.394;10.978;2023-04-25T11:00:12;0.85;;;0.60;;
23384;SDS011;11865;45.394;10.978;2023-04-25T11:02:44;1.27;;;1.17;;
23384;SDS011;11865;45.394;10.978;2023-04-25T11:05:20;2.35;;;1.10;;
23384;SDS011;11865;45.394;10.978;2023-04-25T11:07:54;1.23;;;1.00;;
23384;SDS011;11865;45.394;10.978;2023-04-25T11:10:27;1.23;;;0.98;;
23384;SDS011;11865;45.394;10.978;2023-04-25T11:12:56;2.28;;;1.15;;
23384;SDS011;11865;45.394;10.978;2023-04-25T11:15:25;1.52;;;0.90;;
23384;SDS011;11865;45.394;10.978;2023-04-25T11:17:53;3.40;;;1.30;;
23384;SDS011;11865;45.394;10.978;2023-04-25T11:20:21;1.80;;;1.00;;
23384;SDS011;11865;45.394;10.978;2023-04-25T11:22:53;1.08;;;0.98;;
23384;SDS011;11865;45.394;10.978;2023-04-25T11:25:20;3.20;;;1.10;;
23384;SDS011;11865;45.394;10.978;2023-04-25T11:27:55;3.95;;;1.42;;
23384;SDS011;11865;45.394;10.978;2023-04-25T11:30:24;1.17;;;0.95;;
23384;SDS011;11865;45.394;10.978;2023-04-25T11:32:53;1.13;;;0.90;;
23384;SDS011;11865;45.394;10.978;2023-04-25T11:35:20;1.75;;;0.98;;
23384;SDS011;11865;45.394;10.978;2023-04-25T11:37:50;5.55;;;1.20;;
23384;SDS011;11865;45.394;10.978;2023-04-25T11:40:17;2.15;;;1.10;;
23384;SDS011;11865;45.394;10.978;2023-04-25T11:42:45;1.92;;;1.63;;
23384;SDS011;11865;45.394;10.978;2023-04-25T11:45:14;2.30;;;1.10;;
23384;SDS011;11865;45.394;10.978;2023-04-25T11:47:41;2.63;;;1.20;;
23384;SDS011;11865;45.394;10.978;2023-04-25T11:50:09;2.50;;;1.30;;
23384;SDS011;11865;45.394;10.978;2023-04-25T11:52:41;2.20;;;0.93;;
23384;SDS011;11865;45.394;10.978;2023-04-25T11:55:17;2.70;;;1.25;;
23384;SDS011;11865;45.394;10.978;2023-04-25T11:57:49;2.42;;;1.17;;
23384;SDS011;11865;45.394;10.978;2023-04-25T12:00:18;2.28;;;1.10;;
23384;SDS011;11865;45.394;10.978;2023-04-25T12:02:47;1.58;;;1.10;;
23384;SDS011;11865;45.394;10.978;2023-04-25T12:05:29;0.80;;;0.80;;
23384;SDS011;11865;45.394;10.978;2023-04-25T12:08:13;2.45;;;1.10;;
23384;SDS011;11865;45.394;10.978;2023-04-25T12:10:43;2.03;;;1.15;;
23384;SDS011;11865;45.394;10.978;2023-04-25T12:13:22;1.60;;;1.00;;
23384;SDS011;11865;45.394;10.978;2023-04-25T12:15:51;2.47;;;1.20;;
23384;SDS011;11865;45.394;10.978;2023-04-25T12:18:22;4.10;;;1.27;;
23384;SDS011;11865;45.394;10.978;2023-04-25T12:20:52;4.15;;;1.20;;
23384;SDS011;11865;45.394;10.978;2023-04-25T12:23:26;1.85;;;1.05;;
23384;SDS011;11865;45.394;10.978;2023-04-25T12:25:55;2.90;;;1.63;;
23384;SDS011;11865;45.394;10.978;2023-04-25T12:28:24;2.83;;;1.52;;
23384;SDS011;11865;45.394;10.978;2023-04-25T12:30:58;4.18;;;1.35;;
23384;SDS011;11865;45.394;10.978;2023-04-25T12:33:28;4.13;;;1.48;;
23384;SDS011;11865;45.394;10.978;2023-04-25T12:36:00;1.42;;;1.13;;
23384;SDS011;11865;45.394;10.978;2023-04-25T12:38:36;3.58;;;1.83;;
23384;SDS011;11865;45.394;10.978;2023-04-25T12:41:06;1.80;;;1.50;;
23384;SDS011;11865;45.394;10.978;2023-04-25T12:43:34;3.00;;;1.90;;
23384;SDS011;11865;45.394;10.978;2023-04-25T12:46:01;3.95;;;2.22;;
23384;SDS011;11865;45.394;10.978;2023-04-25T12:48:29;3.40;;;2.65;;
23384;SDS011;11865;45.394;10.978;2023-04-25T12:50:57;4.60;;;1.90;;
23384;SDS011;11865;45.394;10.978;2023-04-25T12:53:25;2.50;;;1.88;;
23384;SDS011;11865;45.394;10.978;2023-04-25T12:55:52;3.20;;;2.05;;
23384;SDS011;11865;45.394;10.978;2023-04-25T12:58:24;2.72;;;2.00;;
23384;SDS011;11865;45.394;10.978;2023-04-25T13:00:52;2.83;;;2.08;;
23384;SDS011;11865;45.394;10.978;2023-04-25T13:03:20;2.35;;;1.95;;
23384;SDS011;11865;45.394;10.978;2023-04-25T13:05:48;2.80;;;1.63;;
23384;SDS011;11865;45.394;10.978;2023-04-25T13:08:18;2.42;;;1.70;;
23384;SDS011;11865;45.394;10.978;2023-04-25T13:10:47;1.98;;;1.70;;
23384;SDS011;11865;45.394;10.978;2023-04-25T13:13:14;2.88;;;1.80;;
23384;SDS011;11865;45.394;10.978;2023-04-25T13:15:43;2.50;;;1.80;;
23384;SDS011;11865;45.394;10.978;2023-04-25T13:18:10;2.75;;;1.98;;
23384;SDS011;11865;45.394;10.978;2023-04-25T13:20:38;3.38;;;2.08;;
23384;SDS011;11865;45.394;10.978;2023-04-25T13:23:05;3.25;;;1.90;;
23384;SDS011;11865;45.394;10.978;2023-04-25T13:25:32;3.33;;;1.65;;
23384;SDS011;11865;45.394;10.978;2023-04-25T13:28:01;3.55;;;2.10;;
23384;SDS011;11865;45.394;10.978;2023-04-25T13:30:28;3.28;;;1.65;;
23384;SDS011;11865;45.394;10.978;2023-04-25T13:32:56;3.65;;;1.73;;
23384;SDS011;11865;45.394;10.978;2023-04-25T13:35:24;3.53;;;2.10;;
23384;SDS011;11865;45.394;10.978;2023-04-25T13:37:52;4.07;;;2.08;;
23384;SDS011;11865;45.394;10.978;2023-04-25T13:40:19;3.80;;;1.95;;
23384;SDS011;11865;45.394;10.978;2023-04-25T13:42:49;5.00;;;2.20;;
23384;SDS011;11865;45.394;10.978;2023-04-25T13:45:17;4.95;;;2.28;;
23384;SDS011;11865;45.394;10.978;2023-04-25T13:47:45;4.13;;;1.98;;
23384;SDS011;11865;45.394;10.978;2023-04-25T13:50:13;4.80;;;1.90;;
23384;SDS011;11865;45.394;10.978;2023-04-25T13:52:42;5.30;;;2.35;;
23384;SDS011;11865;45.394;10.978;2023-04-25T13:55:10;8.50;;;2.60;;
23384;SDS011;11865;45.394;10.978;2023-04-25T13:57:37;9.85;;;3.20;;
23384;SDS011;11865;45.394;10.978;2023-04-25T14:00:07;4.28;;;2.30;;
23384;SDS011;11865;45.394;10.978;2023-04-25T14:02:38;9.32;;;2.70;;
23384;SDS011;11865;45.394;10.978;2023-04-25T14:05:05;7.28;;;2.58;;
23384;SDS011;11865;45.394;10.978;2023-04-25T14:07:34;5.95;;;2.53;;
23384;SDS011;11865;45.394;10.978;2023-04-25T14:10:03;9.85;;;3.25;;
23384;SDS011;11865;45.394;10.978;2023-04-25T14:12:31;6.80;;;3.28;;
23384;SDS011;11865;45.394;10.978;2023-04-25T14:14:59;4.72;;;2.40;;
23384;SDS011;11865;45.394;10.978;2023-04-25T14:17:26;3.70;;;2.17;;
23384;SDS011;11865;45.394;10.978;2023-04-25T14:19:54;6.40;;;2.47;;
23384;SDS011;11865;45.394;10.978;2023-04-25T14:22:21;4.55;;;2.00;;
23384;SDS011;11865;45.394;10.978;2023-04-25T14:24:49;7.85;;;2.60;;
23384;SDS011;11865;45.394;10.978;2023-04-25T14:27:16;7.22;;;2.30;;
23384;SDS011;11865;45.394;10.978;2023-04-25T14:29:44;6.72;;;2.50;;
23384;SDS011;11865;45.394;10.978;2023-04-25T14:32:11;3.80;;;2.03;;
23384;SDS011;11865;45.394;10.978;2023-04-25T14:34:39;6.05;;;3.10;;
23384;SDS011;11865;45.394;10.978;2023-04-25T14:37:07;6.03;;;2.42;;
23384;SDS011;11865;45.394;10.978;2023-04-25T14:39:34;13.68;;;6.65;;
23384;SDS011;11865;45.394;10.978;2023-04-25T14:42:01;13.50;;;6.22;;
23384;SDS011;11865;45.394;10.978;2023-04-25T14:44:29;5.60;;;2.88;;
23384;SDS011;11865;45.394;10.978;2023-04-25T14:46:57;7.35;;;3.85;;
23384;SDS011;11865;45.394;10.978;2023-04-25T14:49:24;4.78;;;2.53;;
23384;SDS011;11865;45.394;10.978;2023-04-25T14:51:52;3.55;;;2.17;;
23384;SDS011;11865;45.394;10.978;2023-04-25T14:54:19;7.45;;;2.78;;
23384;SDS011;11865;45.394;10.978;2023-04-25T14:56:47;3.55;;;2.15;;
23384;SDS011;11865;45.394;10.978;2023-04-25T14:59:14;4.43;;;2.25;;
23384;SDS011;11865;45.394;10.978;2023-04-25T15:01:42;4.13;;;2.38;;